sensor_id;sensor_type;location;lat;lon;timestamp;temperature;humidity
12815;DHT22;6472;52.328;13.070;2024-03-02T00:00:56;4.90;99.90
12815;DHT22;6472;52.328;13.070;2024-03-02T00:03:25;4.90;99.90
12815;DHT22;6472;52.328;13.070;2024-03-02T00:05:53;4.90;99.90
12815;DHT22;6472;52.328;13.070;2024-03-02T00:08:23;5.00;99.90
12815;DHT22;6472;52.328;13.070;2024-03-02T00:10:57;5.00;99.90
12815;DHT22;6472;52.328;13.070;2024-03-02T00:13:27;4.90;99.90
12815;DHT22;6472;52.328;13.070;2024-03-02T00:15:57;5.00;99.90
12815;DHT22;6472;52.328;13.070;2024-03-02T00:18:27;5.00;99.90
12815;DHT22;6472;52.328;13.070;2024-03-02T00:20:56;5.00;99.90
12815;DHT22;6472;52.328;13.070;2024-03-02T00:23:27;5.00;99.90
12815;DHT22;6472;52.328;13.070;2024-03-02T00:25:55;5.00;99.90
12815;DHT22;6472;52.328;13.070;2024-03-02T00:28:25;5.00;99.90
12815;DHT22;6472;52.328;13.070;2024-03-02T00:30:58;5.00;99.90
12815;DHT22;6472;52.328;13.070;2024-03-02T00:33:27;5.10;99.90
12815;DHT22;6472;52.328;13.070;2024-03-02T00:35:58;5.10;99.90
12815;DHT22;6472;52.328;13.070;2024-03-02T00:38:27;5.00;99.90
12815;DHT22;6472;52.328;13.070;2024-03-02T00:40:56;5.10;99.90
12815;DHT22;6472;52.328;13.070;2024-03-02T00:43:43;5.10;99.90
12815;DHT22;6472;52.328;13.070;2024-03-02T00:46:18;5.10;99.90
12815;DHT22;6472;52.328;13.070;2024-03-02T00:48:55;5.10;99.90
12815;DHT22;6472;52.328;13.070;2024-03-02T00:51:24;5.20;99.90
12815;DHT22;6472;52.328;13.070;2024-03-02T00:53:53;5.20;99.90
12815;DHT22;6472;52.328;13.070;2024-03-02T00:56:24;5.20;99.90
12815;DHT22;6472;52.328;13.070;2024-03-02T00:58:53;5.20;99.90
12815;DHT22;6472;52.328;13.070;2024-03-02T01:01:23;5.20;99.90
12815;DHT22;6472;52.328;13.070;2024-03-02T01:03:52;5.20;99.90
12815;DHT22;6472;52.328;13.070;2024-03-02T01:06:20;5.20;99.90
12815;DHT22;6472;52.328;13.070;2024-03-02T01:08:49;5.20;99.90
12815;DHT22;6472;52.328;13.070;2024-03-02T01:11:19;5.20;99.90
12815;DHT22;6472;52.328;13.070;2024-03-02T01:13:49;5.30;99.90
12815;DHT22;6472;52.328;13.070;2024-03-02T01:16:18;5.30;99.90
12815;DHT22;6472;52.328;13.070;2024-03-02T01:18:48;5.30;99.90
12815;DHT22;6472;52.328;13.070;2024-03-02T01:21:17;5.30;99.90
12815;DHT22;6472;52.328;13.070;2024-03-02T01:23:45;5.30;99.90
12815;DHT22;6472;52.328;13.070;2024-03-02T01:26:13;5.30;99.90
12815;DHT22;6472;52.328;13.070;2024-03-02T01:28:41;5.30;99.90
12815;DHT22;6472;52.328;13.070;2024-03-02T01:31:10;5.30;99.90
12815;DHT22;6472;52.328;13.070;2024-03-02T01:33:38;5.30;99.90
12815;DHT22;6472;52.328;13.070;2024-03-02T01:36:08;5.30;99.90
12815;DHT22;6472;52.328;13.070;2024-03-02T01:38:36;5.40;99.90
12815;DHT22;6472;52.328;13.070;2024-03-02T01:41:04;5.30;99.90
12815;DHT22;6472;52.328;13.070;2024-03-02T01:43:33;5.30;99.90
12815;DHT22;6472;52.328;13.070;2024-03-02T01:46:04;5.30;99.90
12815;DHT22;6472;52.328;13.070;2024-03-02T01:48:32;5.30;99.90
12815;DHT22;6472;52.328;13.070;2024-03-02T01:51:01;5.30;99.90
12815;DHT22;6472;52.328;13.070;2024-03-02T01:53:31;5.20;99.90
12815;DHT22;6472;52.328;13.070;2024-03-02T01:55:59;5.30;99.90
12815;DHT22;6472;52.328;13.070;2024-03-02T01:58:28;5.30;99.90
12815;DHT22;6472;52.328;13.070;2024-03-02T02:00:56;5.30;99.90
12815;DHT22;6472;52.328;13.070;2024-03-02T02:03:25;5.30;99.90
12815;DHT22;6472;52.328;13.070;2024-03-02T02:05:53;5.30;99.90
12815;DHT22;6472;52.328;13.070;2024-03-02T02:08:21;5.30;99.90
12815;DHT22;6472;52.328;13.070;2024-03-02T02:10:51;5.40;99.90
12815;DHT22;6472;52.328;13.070;2024-03-02T02:13:19;5.40;99.90
12815;DHT22;6472;52.328;13.070;2024-03-02T02:15:47;5.40;99.90
12815;DHT22;6472;52.328;13.070;2024-03-02T02:18:16;5.60;99.90
12815;DHT22;6472;52.328;13.070;2024-03-02T02:20:44;5.60;99.90
12815;DHT22;6472;52.328;13.070;2024-03-02T02:23:14;5.50;99.90
12815;DHT22;6472;52.328;13.070;2024-03-02T02:25:42;5.50;99.90
12815;DHT22;6472;52.328;13.070;2024-03-02T02:28:10;5.50;99.90
12815;DHT22;6472;52.328;13.070;2024-03-02T02:30:38;5.50;99.90
12815;DHT22;6472;52.328;13.070;2024-03-02T02:33:07;5.50;99.90
12815;DHT22;6472;52.328;13.070;2024-03-02T02:35:36;5.60;99.90
12815;DHT22;6472;52.328;13.070;2024-03-02T02:38:04;5.50;99.90
12815;DHT22;6472;52.328;13.070;2024-03-02T02:40:35;5.50;99.90
12815;DHT22;6472;52.328;13.070;2024-03-02T02:43:04;5.50;99.90
12815;DHT22;6472;52.328;13.070;2024-03-02T02:45:33;5.50;99.90
12815;DHT22;6472;52.328;13.070;2024-03-02T02:48:02;5.50;99.90
12815;DHT22;6472;52.328;13.070;2024-03-02T02:50:30;5.60;99.90
12815;DHT22;6472;52.328;13.070;2024-03-02T02:52:58;5.60;99.90
12815;DHT22;6472;52.328;13.070;2024-03-02T02:55:27;5.60;99.90
12815;DHT22;6472;52.328;13.070;2024-03-02T02:57:56;5.60;99.90
12815;DHT22;6472;52.328;13.070;2024-03-02T03:00:25;5.60;99.90
12815;DHT22;6472;52.328;13.070;2024-03-02T03:02:53;5.60;99.90
12815;DHT22;6472;52.328;13.070;2024-03-02T03:05:22;5.60;99.90
12815;DHT22;6472;52.328;13.070;2024-03-02T03:07:50;5.70;99.90
12815;DHT22;6472;52.328;13.070;2024-03-02T03:10:18;5.70;99.90
12815;DHT22;6472;52.328;13.070;2024-03-02T03:12:49;5.60;99.90
12815;DHT22;6472;52.328;13.070;2024-03-02T03:15:19;5.70;99.90
12815;DHT22;6472;52.328;13.070;2024-03-02T03:17:47;5.70;99.90
12815;DHT22;6472;52.328;13.070;2024-03-02T03:20:15;5.70;99.90
12815;DHT22;6472;52.328;13.070;2024-03-02T03:22:43;5.80;99.90
12815;DHT22;6472;52.328;13.070;2024-03-02T03:25:12;5.80;99.90
12815;DHT22;6472;52.328;13.070;2024-03-02T03:27:40;5.80;99.90
12815;DHT22;6472;52.328;13.070;2024-03-02T03:30:09;5.80;99.90
12815;DHT22;6472;52.328;13.070;2024-03-02T03:32:39;5.80;99.90
12815;DHT22;6472;52.328;13.070;2024-03-02T03:35:08;5.80;99.90
12815;DHT22;6472;52.328;13.070;2024-03-02T03:37:37;5.90;99.90
12815;DHT22;6472;52.328;13.070;2024-03-02T03:40:06;5.80;99.90
12815;DHT22;6472;52.328;13.070;2024-03-02T03:42:37;5.80;99.90
12815;DHT22;6472;52.328;13.070;2024-03-02T03:45:07;5.80;99.90
12815;DHT22;6472;52.328;13.070;2024-03-02T03:47:35;5.80;99.90
12815;DHT22;6472;52.328;13.070;2024-03-02T03:50:06;5.80;99.90
12815;DHT22;6472;52.328;13.070;2024-03-02T03:52:35;5.70;99.90
12815;DHT22;6472;52.328;13.070;2024-03-02T03:55:04;5.80;99.90
12815;DHT22;6472;52.328;13.070;2024-03-02T03:57:33;5.80;99.90
12815;DHT22;6472;52.328;13.070;2024-03-02T04:00:02;5.70;99.90
12815;DHT22;6472;52.328;13.070;2024-03-02T04:02:30;5.80;99.90
12815;DHT22;6472;52.328;13.070;2024-03-02T04:04:58;5.80;99.90
12815;DHT22;6472;52.328;13.070;2024-03-02T04:07:28;5.80;99.90
12815;DHT22;6472;52.328;13.070;2024-03-02T04:09:56;5.90;99.90
12815;DHT22;6472;52.328;13.070;2024-03-02T04:12:24;5.90;99.90
12815;DHT22;6472;52.328;13.070;2024-03-02T04:14:53;5.90;99.90
12815;DHT22;6472;52.328;13.070;2024-03-02T04:17:21;5.90;99.90
12815;DHT22;6472;52.328;13.070;2024-03-02T04:19:49;5.90;99.90
12815;DHT22;6472;52.328;13.070;2024-03-02T04:22:17;6.00;99.90
12815;DHT22;6472;52.328;13.070;2024-03-02T04:24:52;6.00;99.90
12815;DHT22;6472;52.328;13.070;2024-03-02T04:27:21;5.90;99.90
12815;DHT22;6472;52.328;13.070;2024-03-02T04:29:49;5.90;99.90
12815;DHT22;6472;52.328;13.070;2024-03-02T04:32:17;6.00;99.90
12815;DHT22;6472;52.328;13.070;2024-03-02T04:34:46;5.90;99.90
12815;DHT22;6472;52.328;13.070;2024-03-02T04:37:15;5.90;99.90
12815;DHT22;6472;52.328;13.070;2024-03-02T04:39:43;5.90;99.90
12815;DHT22;6472;52.328;13.070;2024-03-02T04:42:13;5.90;99.90
12815;DHT22;6472;52.328;13.070;2024-03-02T04:44:41;5.90;99.90
12815;DHT22;6472;52.328;13.070;2024-03-02T04:47:09;5.90;99.90
12815;DHT22;6472;52.328;13.070;2024-03-02T04:49:37;5.90;99.90
12815;DHT22;6472;52.328;13.070;2024-03-02T04:52:06;5.90;99.90
12815;DHT22;6472;52.328;13.070;2024-03-02T04:54:34;5.90;99.90
12815;DHT22;6472;52.328;13.070;2024-03-02T04:57:25;6.00;99.90
12815;DHT22;6472;52.328;13.070;2024-03-02T04:59:53;6.00;99.90
12815;DHT22;6472;52.328;13.070;2024-03-02T05:02:21;6.00;99.90
12815;DHT22;6472;52.328;13.070;2024-03-02T05:04:49;6.00;99.90
12815;DHT22;6472;52.328;13.070;2024-03-02T05:07:18;6.00;99.90
12815;DHT22;6472;52.328;13.070;2024-03-02T05:09:46;6.00;99.90
12815;DHT22;6472;52.328;13.070;2024-03-02T05:12:15;6.00;99.90
12815;DHT22;6472;52.328;13.070;2024-03-02T05:15:09;6.00;99.90
12815;DHT22;6472;52.328;13.070;2024-03-02T05:17:38;6.00;99.90
12815;DHT22;6472;52.328;13.070;2024-03-02T05:20:07;6.00;99.90
12815;DHT22;6472;52.328;13.070;2024-03-02T05:22:36;6.10;99.90
12815;DHT22;6472;52.328;13.070;2024-03-02T05:25:05;6.00;99.90
12815;DHT22;6472;52.328;13.070;2024-03-02T05:27:34;6.00;99.90
12815;DHT22;6472;52.328;13.070;2024-03-02T05:30:03;6.00;99.90
12815;DHT22;6472;52.328;13.070;2024-03-02T05:32:34;6.00;99.90
12815;DHT22;6472;52.328;13.070;2024-03-02T05:35:03;6.10;99.90
12815;DHT22;6472;52.328;13.070;2024-03-02T05:37:32;6.10;99.90
12815;DHT22;6472;52.328;13.070;2024-03-02T05:40:01;6.00;99.90
12815;DHT22;6472;52.328;13.070;2024-03-02T05:42:29;6.10;99.90
12815;DHT22;6472;52.328;13.070;2024-03-02T05:44:57;6.10;99.90
12815;DHT22;6472;52.328;13.070;2024-03-02T05:47:26;6.00;99.90
12815;DHT22;6472;52.328;13.070;2024-03-02T05:49:56;6.10;99.90
12815;DHT22;6472;52.328;13.070;2024-03-02T05:52:24;6.10;99.90
12815;DHT22;6472;52.328;13.070;2024-03-02T05:54:52;6.10;99.90
12815;DHT22;6472;52.328;13.070;2024-03-02T05:57:21;6.10;99.90
12815;DHT22;6472;52.328;13.070;2024-03-02T06:00:04;6.20;99.90
12815;DHT22;6472;52.328;13.070;2024-03-02T06:02:35;6.10;99.90
12815;DHT22;6472;52.328;13.070;2024-03-02T06:05:07;6.10;99.90
12815;DHT22;6472;52.328;13.070;2024-03-02T06:07:35;6.20;99.90
12815;DHT22;6472;52.328;13.070;2024-03-02T06:10:05;6.20;99.90
12815;DHT22;6472;52.328;13.070;2024-03-02T06:12:38;6.10;99.90
12815;DHT22;6472;52.328;13.070;2024-03-02T06:15:07;6.10;99.90
12815;DHT22;6472;52.328;13.070;2024-03-02T06:17:36;6.20;99.90
12815;DHT22;6472;52.328;13.070;2024-03-02T06:20:07;6.20;99.90
12815;DHT22;6472;52.328;13.070;2024-03-02T06:22:36;6.10;99.90
12815;DHT22;6472;52.328;13.070;2024-03-02T06:25:04;6.10;99.90
12815;DHT22;6472;52.328;13.070;2024-03-02T06:27:33;6.20;99.90
12815;DHT22;6472;52.328;13.070;2024-03-02T06:30:01;6.10;99.90
12815;DHT22;6472;52.328;13.070;2024-03-02T06:32:31;6.10;99.90
12815;DHT22;6472;52.328;13.070;2024-03-02T06:35:00;6.20;99.90
12815;DHT22;6472;52.328;13.070;2024-03-02T06:37:29;6.30;99.90
12815;DHT22;6472;52.328;13.070;2024-03-02T06:40:00;6.30;99.90
12815;DHT22;6472;52.328;13.070;2024-03-02T06:42:28;6.30;99.90
12815;DHT22;6472;52.328;13.070;2024-03-02T06:45:00;6.40;99.90
12815;DHT22;6472;52.328;13.070;2024-03-02T06:47:28;6.40;99.90
12815;DHT22;6472;52.328;13.070;2024-03-02T06:49:56;6.40;99.90
12815;DHT22;6472;52.328;13.070;2024-03-02T06:52:25;6.50;99.90
12815;DHT22;6472;52.328;13.070;2024-03-02T06:54:54;6.60;99.90
12815;DHT22;6472;52.328;13.070;2024-03-02T06:57:23;6.70;99.90
12815;DHT22;6472;52.328;13.070;2024-03-02T06:59:51;6.80;99.90
12815;DHT22;6472;52.328;13.070;2024-03-02T07:02:21;6.80;99.90
12815;DHT22;6472;52.328;13.070;2024-03-02T07:04:49;6.90;99.90
12815;DHT22;6472;52.328;13.070;2024-03-02T07:07:18;6.90;99.90
12815;DHT22;6472;52.328;13.070;2024-03-02T07:09:46;6.90;99.90
12815;DHT22;6472;52.328;13.070;2024-03-02T07:12:15;7.00;99.90
12815;DHT22;6472;52.328;13.070;2024-03-02T07:14:43;7.10;99.90
12815;DHT22;6472;52.328;13.070;2024-03-02T07:17:38;7.10;99.90
12815;DHT22;6472;52.328;13.070;2024-03-02T07:20:06;7.10;99.90
12815;DHT22;6472;52.328;13.070;2024-03-02T07:22:35;7.20;99.90
12815;DHT22;6472;52.328;13.070;2024-03-02T07:25:07;7.20;99.90
12815;DHT22;6472;52.328;13.070;2024-03-02T07:27:57;7.20;99.90
12815;DHT22;6472;52.328;13.070;2024-03-02T07:30:25;7.40;99.90
12815;DHT22;6472;52.328;13.070;2024-03-02T07:32:54;7.40;99.90
12815;DHT22;6472;52.328;13.070;2024-03-02T07:35:22;7.50;99.90
12815;DHT22;6472;52.328;13.070;2024-03-02T07:37:53;7.40;99.90
12815;DHT22;6472;52.328;13.070;2024-03-02T07:40:22;7.60;99.90
12815;DHT22;6472;52.328;13.070;2024-03-02T07:42:51;7.70;99.90
12815;DHT22;6472;52.328;13.070;2024-03-02T07:45:20;7.80;99.90
12815;DHT22;6472;52.328;13.070;2024-03-02T07:47:48;7.80;99.90
12815;DHT22;6472;52.328;13.070;2024-03-02T07:50:19;7.90;99.90
12815;DHT22;6472;52.328;13.070;2024-03-02T07:52:47;7.90;99.90
12815;DHT22;6472;52.328;13.070;2024-03-02T07:55:15;7.90;99.90
12815;DHT22;6472;52.328;13.070;2024-03-02T07:57:44;7.90;99.90
12815;DHT22;6472;52.328;13.070;2024-03-02T08:00:13;7.90;99.90
12815;DHT22;6472;52.328;13.070;2024-03-02T08:02:43;8.00;99.90
12815;DHT22;6472;52.328;13.070;2024-03-02T08:05:11;8.00;99.90
12815;DHT22;6472;52.328;13.070;2024-03-02T08:07:39;8.00;99.90
12815;DHT22;6472;52.328;13.070;2024-03-02T08:10:08;8.00;99.90
12815;DHT22;6472;52.328;13.070;2024-03-02T08:12:36;8.10;99.90
12815;DHT22;6472;52.328;13.070;2024-03-02T08:15:05;8.10;99.90
12815;DHT22;6472;52.328;13.070;2024-03-02T08:17:34;8.00;99.90
12815;DHT22;6472;52.328;13.070;2024-03-02T08:20:07;8.10;99.90
12815;DHT22;6472;52.328;13.070;2024-03-02T08:22:36;8.20;99.90
12815;DHT22;6472;52.328;13.070;2024-03-02T08:25:04;8.30;99.90
12815;DHT22;6472;52.328;13.070;2024-03-02T08:27:33;8.30;99.90
12815;DHT22;6472;52.328;13.070;2024-03-02T08:30:01;8.30;99.90
12815;DHT22;6472;52.328;13.070;2024-03-02T08:32:33;8.40;99.90
12815;DHT22;6472;52.328;13.070;2024-03-02T08:35:02;8.40;99.90
12815;DHT22;6472;52.328;13.070;2024-03-02T08:37:31;8.40;99.90
12815;DHT22;6472;52.328;13.070;2024-03-02T08:39:59;8.50;99.90
12815;DHT22;6472;52.328;13.070;2024-03-02T08:42:28;8.50;99.90
12815;DHT22;6472;52.328;13.070;2024-03-02T08:44:56;8.60;99.90
12815;DHT22;6472;52.328;13.070;2024-03-02T08:47:25;8.60;99.90
12815;DHT22;6472;52.328;13.070;2024-03-02T08:49:53;8.60;99.90
12815;DHT22;6472;52.328;13.070;2024-03-02T08:52:24;8.80;99.90
12815;DHT22;6472;52.328;13.070;2024-03-02T08:54:54;8.90;99.90
12815;DHT22;6472;52.328;13.070;2024-03-02T08:57:22;8.80;99.90
12815;DHT22;6472;52.328;13.070;2024-03-02T08:59:50;8.90;99.90
12815;DHT22;6472;52.328;13.070;2024-03-02T09:02:18;9.00;99.90
12815;DHT22;6472;52.328;13.070;2024-03-02T09:04:47;9.00;99.90
12815;DHT22;6472;52.328;13.070;2024-03-02T09:07:15;8.80;99.90
12815;DHT22;6472;52.328;13.070;2024-03-02T09:09:43;8.90;99.90
12815;DHT22;6472;52.328;13.070;2024-03-02T09:12:13;9.00;99.90
12815;DHT22;6472;52.328;13.070;2024-03-02T09:14:41;9.10;99.90
12815;DHT22;6472;52.328;13.070;2024-03-02T09:17:09;9.20;99.90
12815;DHT22;6472;52.328;13.070;2024-03-02T09:19:39;9.30;99.90
12815;DHT22;6472;52.328;13.070;2024-03-02T09:22:07;9.20;99.90
12815;DHT22;6472;52.328;13.070;2024-03-02T09:24:37;9.20;99.90
12815;DHT22;6472;52.328;13.070;2024-03-02T09:27:05;9.10;99.90
12815;DHT22;6472;52.328;13.070;2024-03-02T09:29:34;9.10;99.90
12815;DHT22;6472;52.328;13.070;2024-03-02T09:32:03;9.30;99.90
12815;DHT22;6472;52.328;13.070;2024-03-02T09:34:32;9.20;99.90
12815;DHT22;6472;52.328;13.070;2024-03-02T09:37:00;9.10;99.90
12815;DHT22;6472;52.328;13.070;2024-03-02T09:39:29;9.10;99.90
12815;DHT22;6472;52.328;13.070;2024-03-02T09:41:57;9.30;99.90
12815;DHT22;6472;52.328;13.070;2024-03-02T09:44:26;9.20;99.90
12815;DHT22;6472;52.328;13.070;2024-03-02T09:46:55;9.20;99.90
12815;DHT22;6472;52.328;13.070;2024-03-02T09:49:24;9.30;99.90
12815;DHT22;6472;52.328;13.070;2024-03-02T09:51:52;9.40;99.90
12815;DHT22;6472;52.328;13.070;2024-03-02T09:54:20;9.30;99.90
12815;DHT22;6472;52.328;13.070;2024-03-02T09:56:49;9.50;99.90
12815;DHT22;6472;52.328;13.070;2024-03-02T09:59:18;9.50;99.90
12815;DHT22;6472;52.328;13.070;2024-03-02T10:01:59;9.60;99.90
12815;DHT22;6472;52.328;13.070;2024-03-02T10:04:29;9.80;99.90
12815;DHT22;6472;52.328;13.070;2024-03-02T10:07:13;9.70;99.90
12815;DHT22;6472;52.328;13.070;2024-03-02T10:09:43;10.00;99.90
12815;DHT22;6472;52.328;13.070;2024-03-02T10:12:13;10.10;99.90
12815;DHT22;6472;52.328;13.070;2024-03-02T10:14:42;10.20;99.90
12815;DHT22;6472;52.328;13.070;2024-03-02T10:17:12;10.30;99.90
12815;DHT22;6472;52.328;13.070;2024-03-02T10:19:42;10.20;99.90
12815;DHT22;6472;52.328;13.070;2024-03-02T10:22:10;10.30;99.90
12815;DHT22;6472;52.328;13.070;2024-03-02T10:24:39;10.50;99.90
12815;DHT22;6472;52.328;13.070;2024-03-02T10:27:08;10.40;99.90
12815;DHT22;6472;52.328;13.070;2024-03-02T10:29:37;10.50;99.90
12815;DHT22;6472;52.328;13.070;2024-03-02T10:32:08;10.70;99.90
12815;DHT22;6472;52.328;13.070;2024-03-02T10:34:40;10.70;99.90
12815;DHT22;6472;52.328;13.070;2024-03-02T10:37:08;10.80;99.90
12815;DHT22;6472;52.328;13.070;2024-03-02T10:39:39;10.80;99.90
12815;DHT22;6472;52.328;13.070;2024-03-02T10:42:08;10.90;99.90
12815;DHT22;6472;52.328;13.070;2024-03-02T10:44:36;11.00;99.90
12815;DHT22;6472;52.328;13.070;2024-03-02T10:47:05;11.00;99.90
12815;DHT22;6472;52.328;13.070;2024-03-02T10:49:33;11.10;99.90
12815;DHT22;6472;52.328;13.070;2024-03-02T10:52:03;11.00;99.90
12815;DHT22;6472;52.328;13.070;2024-03-02T10:54:31;11.20;99.90
12815;DHT22;6472;52.328;13.070;2024-03-02T10:57:04;10.90;99.90
12815;DHT22;6472;52.328;13.070;2024-03-02T10:59:37;10.90;99.90
12815;DHT22;6472;52.328;13.070;2024-03-02T11:02:07;11.20;99.90
12815;DHT22;6472;52.328;13.070;2024-03-02T11:04:39;11.40;99.90
12815;DHT22;6472;52.328;13.070;2024-03-02T11:07:11;11.60;99.90
12815;DHT22;6472;52.328;13.070;2024-03-02T11:09:41;11.50;99.90
12815;DHT22;6472;52.328;13.070;2024-03-02T11:12:13;11.70;99.90
12815;DHT22;6472;52.328;13.070;2024-03-02T11:14:45;11.70;99.90
12815;DHT22;6472;52.328;13.070;2024-03-02T11:17:14;11.80;99.90
12815;DHT22;6472;52.328;13.070;2024-03-02T11:19:44;11.90;99.90
12815;DHT22;6472;52.328;13.070;2024-03-02T11:22:15;12.00;99.90
12815;DHT22;6472;52.328;13.070;2024-03-02T11:24:48;12.20;99.90
12815;DHT22;6472;52.328;13.070;2024-03-02T11:30:49;12.40;99.90
12815;DHT22;6472;52.328;13.070;2024-03-02T11:33:25;12.40;99.90
12815;DHT22;6472;52.328;13.070;2024-03-02T11:35:58;12.60;99.90
12815;DHT22;6472;52.328;13.070;2024-03-02T11:38:34;12.50;99.90
12815;DHT22;6472;52.328;13.070;2024-03-02T11:41:06;12.60;99.90
12815;DHT22;6472;52.328;13.070;2024-03-02T11:43:37;12.70;99.90
12815;DHT22;6472;52.328;13.070;2024-03-02T11:46:07;12.60;99.90
12815;DHT22;6472;52.328;13.070;2024-03-02T11:48:36;12.40;99.90
12815;DHT22;6472;52.328;13.070;2024-03-02T11:51:05;12.40;99.90
12815;DHT22;6472;52.328;13.070;2024-03-02T11:53:35;12.40;99.90
12815;DHT22;6472;52.328;13.070;2024-03-02T11:56:06;12.80;99.90
12815;DHT22;6472;52.328;13.070;2024-03-02T11:58:39;13.20;99.90
12815;DHT22;6472;52.328;13.070;2024-03-02T12:01:08;13.30;99.90
12815;DHT22;6472;52.328;13.070;2024-03-02T12:03:36;13.40;99.90
12815;DHT22;6472;52.328;13.070;2024-03-02T12:06:06;13.50;99.90
12815;DHT22;6472;52.328;13.070;2024-03-02T12:08:36;13.70;99.90
12815;DHT22;6472;52.328;13.070;2024-03-02T12:11:05;13.80;99.90
12815;DHT22;6472;52.328;13.070;2024-03-02T12:13:34;13.70;99.90
12815;DHT22;6472;52.328;13.070;2024-03-02T12:16:03;13.40;99.90
12815;DHT22;6472;52.328;13.070;2024-03-02T12:18:31;13.50;99.90
12815;DHT22;6472;52.328;13.070;2024-03-02T12:20:59;13.50;99.90
12815;DHT22;6472;52.328;13.070;2024-03-02T12:23:29;13.30;99.90
12815;DHT22;6472;52.328;13.070;2024-03-02T12:25:59;13.30;99.90
12815;DHT22;6472;52.328;13.070;2024-03-02T12:28:27;13.40;99.90
12815;DHT22;6472;52.328;13.070;2024-03-02T12:30:58;13.60;99.90
12815;DHT22;6472;52.328;13.070;2024-03-02T12:33:26;13.40;99.90
12815;DHT22;6472;52.328;13.070;2024-03-02T12:35:56;13.30;99.90
12815;DHT22;6472;52.328;13.070;2024-03-02T12:38:25;13.40;99.90
12815;DHT22;6472;52.328;13.070;2024-03-02T12:40:54;13.60;99.90
12815;DHT22;6472;52.328;13.070;2024-03-02T12:43:23;13.60;99.90
12815;DHT22;6472;52.328;13.070;2024-03-02T12:45:53;13.70;99.90
12815;DHT22;6472;52.328;13.070;2024-03-02T12:48:22;13.60;99.90
12815;DHT22;6472;52.328;13.070;2024-03-02T12:50:51;13.80;99.90
12815;DHT22;6472;52.328;13.070;2024-03-02T12:53:21;13.70;99.90
12815;DHT22;6472;52.328;13.070;2024-03-02T12:55:49;13.60;99.90
12815;DHT22;6472;52.328;13.070;2024-03-02T12:58:19;13.60;99.90
12815;DHT22;6472;52.328;13.070;2024-03-02T13:00:49;13.70;99.90
12815;DHT22;6472;52.328;13.070;2024-03-02T13:03:18;13.60;99.90
12815;DHT22;6472;52.328;13.070;2024-03-02T13:05:49;13.50;99.90
12815;DHT22;6472;52.328;13.070;2024-03-02T13:08:18;13.50;99.90
12815;DHT22;6472;52.328;13.070;2024-03-02T13:10:46;13.70;99.90
12815;DHT22;6472;52.328;13.070;2024-03-02T13:13:14;13.90;99.90
12815;DHT22;6472;52.328;13.070;2024-03-02T13:15:42;13.90;99.90
12815;DHT22;6472;52.328;13.070;2024-03-02T13:18:13;13.80;99.90
12815;DHT22;6472;52.328;13.070;2024-03-02T13:20:41;13.80;99.90
12815;DHT22;6472;52.328;13.070;2024-03-02T13:23:09;13.80;99.90
12815;DHT22;6472;52.328;13.070;2024-03-02T13:25:37;14.00;99.90
12815;DHT22;6472;52.328;13.070;2024-03-02T13:28:06;14.00;99.90
12815;DHT22;6472;52.328;13.070;2024-03-02T13:30:34;14.00;99.90
12815;DHT22;6472;52.328;13.070;2024-03-02T13:33:03;14.00;99.90
12815;DHT22;6472;52.328;13.070;2024-03-02T13:35:32;14.00;99.90
12815;DHT22;6472;52.328;13.070;2024-03-02T13:38:00;14.00;99.90
12815;DHT22;6472;52.328;13.070;2024-03-02T13:40:28;13.90;99.90
12815;DHT22;6472;52.328;13.070;2024-03-02T13:43:02;13.90;99.90
12815;DHT22;6472;52.328;13.070;2024-03-02T13:45:30;13.80;99.90
12815;DHT22;6472;52.328;13.070;2024-03-02T13:48:00;13.90;99.90
12815;DHT22;6472;52.328;13.070;2024-03-02T13:50:28;13.90;99.90
12815;DHT22;6472;52.328;13.070;2024-03-02T13:52:58;13.90;99.90
12815;DHT22;6472;52.328;13.070;2024-03-02T13:55:27;14.00;99.90
12815;DHT22;6472;52.328;13.070;2024-03-02T13:57:55;14.10;99.90
12815;DHT22;6472;52.328;13.070;2024-03-02T14:00:23;14.00;99.90
12815;DHT22;6472;52.328;13.070;2024-03-02T14:02:52;14.10;99.90
12815;DHT22;6472;52.328;13.070;2024-03-02T14:05:20;14.10;99.90
12815;DHT22;6472;52.328;13.070;2024-03-02T14:07:48;13.90;99.90
12815;DHT22;6472;52.328;13.070;2024-03-02T14:10:18;14.00;99.90
12815;DHT22;6472;52.328;13.070;2024-03-02T14:12:49;13.90;99.90
12815;DHT22;6472;52.328;13.070;2024-03-02T14:15:17;14.00;99.90
12815;DHT22;6472;52.328;13.070;2024-03-02T14:17:47;14.10;99.90
12815;DHT22;6472;52.328;13.070;2024-03-02T14:20:16;14.10;99.90
12815;DHT22;6472;52.328;13.070;2024-03-02T14:22:49;14.20;99.90
12815;DHT22;6472;52.328;13.070;2024-03-02T14:25:18;14.30;99.90
12815;DHT22;6472;52.328;13.070;2024-03-02T14:27:47;14.30;99.90
12815;DHT22;6472;52.328;13.070;2024-03-02T14:30:35;14.30;99.90
12815;DHT22;6472;52.328;13.070;2024-03-02T14:33:04;14.30;99.90
12815;DHT22;6472;52.328;13.070;2024-03-02T14:35:32;14.20;99.90
12815;DHT22;6472;52.328;13.070;2024-03-02T14:38:01;14.20;99.90
12815;DHT22;6472;52.328;13.070;2024-03-02T14:40:30;14.10;99.90
12815;DHT22;6472;52.328;13.070;2024-03-02T14:42:58;13.90;99.90
12815;DHT22;6472;52.328;13.070;2024-03-02T14:45:27;13.90;99.90
12815;DHT22;6472;52.328;13.070;2024-03-02T14:47:56;13.80;99.90
12815;DHT22;6472;52.328;13.070;2024-03-02T14:50:26;13.70;99.90
12815;DHT22;6472;52.328;13.070;2024-03-02T14:52:54;13.80;99.90
12815;DHT22;6472;52.328;13.070;2024-03-02T14:55:24;13.70;99.90
12815;DHT22;6472;52.328;13.070;2024-03-02T14:57:54;13.60;99.90
12815;DHT22;6472;52.328;13.070;2024-03-02T15:00:22;13.50;99.90
12815;DHT22;6472;52.328;13.070;2024-03-02T15:02:51;13.60;99.90
12815;DHT22;6472;52.328;13.070;2024-03-02T15:05:19;13.50;99.90
12815;DHT22;6472;52.328;13.070;2024-03-02T15:07:47;13.60;99.90
12815;DHT22;6472;52.328;13.070;2024-03-02T15:10:15;13.50;99.90
12815;DHT22;6472;52.328;13.070;2024-03-02T15:12:44;13.50;99.90
12815;DHT22;6472;52.328;13.070;2024-03-02T15:15:13;13.40;99.90
12815;DHT22;6472;52.328;13.070;2024-03-02T15:17:42;13.30;99.90
12815;DHT22;6472;52.328;13.070;2024-03-02T15:20:10;13.20;99.90
12815;DHT22;6472;52.328;13.070;2024-03-02T15:22:38;13.20;99.90
12815;DHT22;6472;52.328;13.070;2024-03-02T15:25:07;13.10;99.90
12815;DHT22;6472;52.328;13.070;2024-03-02T15:27:35;13.20;99.90
12815;DHT22;6472;52.328;13.070;2024-03-02T15:30:05;13.10;99.90
12815;DHT22;6472;52.328;13.070;2024-03-02T15:32:34;13.00;99.90
12815;DHT22;6472;52.328;13.070;2024-03-02T15:35:04;12.90;99.90
12815;DHT22;6472;52.328;13.070;2024-03-02T15:37:32;12.90;99.90
12815;DHT22;6472;52.328;13.070;2024-03-02T15:40:00;12.90;99.90
12815;DHT22;6472;52.328;13.070;2024-03-02T15:42:33;12.90;99.90
12815;DHT22;6472;52.328;13.070;2024-03-02T15:45:01;12.90;99.90
12815;DHT22;6472;52.328;13.070;2024-03-02T15:47:29;12.70;99.90
12815;DHT22;6472;52.328;13.070;2024-03-02T15:49:59;12.70;99.90
12815;DHT22;6472;52.328;13.070;2024-03-02T15:52:27;12.50;99.90
12815;DHT22;6472;52.328;13.070;2024-03-02T15:54:55;12.50;99.90
12815;DHT22;6472;52.328;13.070;2024-03-02T15:57:24;12.40;99.90